sensor_id;sensor_type;location;lat;lon;timestamp;P1;durP1;ratioP1;P2;durP2;ratioP2
76348;SDS011;65172;46.764;15.406;2023-04-24T00:01:36;6.43;;;4.60;;
76348;SDS011;65172;46.764;15.406;2023-04-24T00:04:02;6.57;;;5.00;;
76348;SDS011;65172;46.764;15.406;2023-04-24T00:06:29;6.55;;;4.60;;
76348;SDS011;65172;46.764;15.406;2023-04-24T00:08:58;8.48;;;4.45;;
76348;SDS011;65172;46.764;15.406;2023-04-24T00:11:27;5.90;;;4.45;;
76348;SDS011;65172;46.764;15.406;2023-04-24T00:13:53;6.40;;;5.10;;
76348;SDS011;65172;46.764;15.406;2023-04-24T00:16:18;7.55;;;4.53;;
76348;SDS011;65172;46.764;15.406;2023-04-24T00:18:44;8.65;;;5.18;;
76348;SDS011;65172;46.764;15.406;2023-04-24T00:21:10;7.35;;;5.47;;
76348;SDS011;65172;46.764;15.406;2023-04-24T00:23:35;6.32;;;4.88;;
76348;SDS011;65172;46.764;15.406;2023-04-24T00:26:01;7.75;;;5.25;;
76348;SDS011;65172;46.764;15.406;2023-04-24T00:28:27;6.40;;;5.07;;
76348;SDS011;65172;46.764;15.406;2023-04-24T00:30:53;9.23;;;4.65;;
76348;SDS011;65172;46.764;15.406;2023-04-24T00:33:18;10.45;;;5.90;;
76348;SDS011;65172;46.764;15.406;2023-04-24T00:35:44;8.85;;;5.10;;
76348;SDS011;65172;46.764;15.406;2023-04-24T00:38:09;7.95;;;4.95;;
76348;SDS011;65172;46.764;15.406;2023-04-24T00:40:35;6.30;;;4.18;;
76348;SDS011;65172;46.764;15.406;2023-04-24T00:43:00;7.57;;;4.90;;
76348;SDS011;65172;46.764;15.406;2023-04-24T00:45:26;9.57;;;5.38;;
76348;SDS011;65172;46.764;15.406;2023-04-24T00:47:52;7.40;;;5.47;;
76348;SDS011;65172;46.764;15.406;2023-04-24T00:50:18;6.18;;;4.78;;
76348;SDS011;65172;46.764;15.406;2023-04-24T00:52:44;7.35;;;5.25;;
76348;SDS011;65172;46.764;15.406;2023-04-24T00:55:10;7.43;;;4.97;;
76348;SDS011;65172;46.764;15.406;2023-04-24T00:57:36;7.97;;;5.20;;
76348;SDS011;65172;46.764;15.406;2023-04-24T01:00:02;7.95;;;5.50;;
76348;SDS011;65172;46.764;15.406;2023-04-24T01:02:30;7.40;;;4.97;;
76348;SDS011;65172;46.764;15.406;2023-04-24T01:04:59;7.47;;;4.93;;
76348;SDS011;65172;46.764;15.406;2023-04-24T01:07:26;5.93;;;5.10;;
76348;SDS011;65172;46.764;15.406;2023-04-24T01:09:51;6.40;;;4.65;;
76348;SDS011;65172;46.764;15.406;2023-04-24T01:12:17;10.90;;;5.00;;
76348;SDS011;65172;46.764;15.406;2023-04-24T01:14:43;6.82;;;4.60;;
76348;SDS011;65172;46.764;15.406;2023-04-24T01:17:08;11.00;;;4.70;;
76348;SDS011;65172;46.764;15.406;2023-04-24T01:19:34;7.70;;;4.50;;
76348;SDS011;65172;46.764;15.406;2023-04-24T01:21:59;4.70;;;4.20;;
76348;SDS011;65172;46.764;15.406;2023-04-24T01:24:27;6.97;;;4.43;;
76348;SDS011;65172;46.764;15.406;2023-04-24T01:26:54;7.20;;;4.40;;
76348;SDS011;65172;46.764;15.406;2023-04-24T01:29:20;7.25;;;5.20;;
76348;SDS011;65172;46.764;15.406;2023-04-24T01:31:45;7.05;;;4.55;;
76348;SDS011;65172;46.764;15.406;2023-04-24T01:34:11;6.13;;;4.28;;
76348;SDS011;65172;46.764;15.406;2023-04-24T01:36:36;6.25;;;4.40;;
76348;SDS011;65172;46.764;15.406;2023-04-24T01:39:02;5.22;;;4.43;;
76348;SDS011;65172;46.764;15.406;2023-04-24T01:41:29;6.30;;;4.70;;
76348;SDS011;65172;46.764;15.406;2023-04-24T01:43:55;12.35;;;4.80;;
76348;SDS011;65172;46.764;15.406;2023-04-24T01:46:21;5.65;;;4.40;;
76348;SDS011;65172;46.764;15.406;2023-04-24T01:48:47;7.15;;;4.60;;
76348;SDS011;65172;46.764;15.406;2023-04-24T01:51:13;6.90;;;4.35;;
76348;SDS011;65172;46.764;15.406;2023-04-24T01:53:39;7.75;;;4.68;;
76348;SDS011;65172;46.764;15.406;2023-04-24T01:56:04;6.18;;;4.60;;
76348;SDS011;65172;46.764;15.406;2023-04-24T01:58:30;9.15;;;5.63;;
76348;SDS011;65172;46.764;15.406;2023-04-24T02:00:56;8.50;;;4.63;;
76348;SDS011;65172;46.764;15.406;2023-04-24T02:03:24;6.85;;;3.85;;
76348;SDS011;65172;46.764;15.406;2023-04-24T02:05:50;7.32;;;4.30;;
76348;SDS011;65172;46.764;15.406;2023-04-24T02:08:16;6.40;;;4.05;;
76348;SDS011;65172;46.764;15.406;2023-04-24T02:10:41;6.68;;;3.97;;
76348;SDS011;65172;46.764;15.406;2023-04-24T02:13:07;8.43;;;3.85;;
76348;SDS011;65172;46.764;15.406;2023-04-24T02:15:32;6.60;;;4.00;;
76348;SDS011;65172;46.764;15.406;2023-04-24T02:17:57;6.43;;;4.57;;
76348;SDS011;65172;46.764;15.406;2023-04-24T02:20:23;7.38;;;4.45;;
76348;SDS011;65172;46.764;15.406;2023-04-24T02:22:48;8.88;;;4.50;;
76348;SDS011;65172;46.764;15.406;2023-04-24T02:25:14;6.05;;;4.30;;
76348;SDS011;65172;46.764;15.406;2023-04-24T02:27:39;7.70;;;4.65;;
76348;SDS011;65172;46.764;15.406;2023-04-24T02:30:05;7.10;;;4.38;;
76348;SDS011;65172;46.764;15.406;2023-04-24T02:32:32;7.47;;;4.95;;
76348;SDS011;65172;46.764;15.406;2023-04-24T02:34:59;9.10;;;5.07;;
76348;SDS011;65172;46.764;15.406;2023-04-24T02:37:24;6.07;;;4.57;;
76348;SDS011;65172;46.764;15.406;2023-04-24T02:39:51;5.43;;;4.40;;
76348;SDS011;65172;46.764;15.406;2023-04-24T02:42:16;6.00;;;4.25;;
76348;SDS011;65172;46.764;15.406;2023-04-24T02:44:42;7.10;;;3.97;;
76348;SDS011;65172;46.764;15.406;2023-04-24T02:47:07;4.90;;;3.85;;
76348;SDS011;65172;46.764;15.406;2023-04-24T02:49:33;6.20;;;4.22;;
76348;SDS011;65172;46.764;15.406;2023-04-24T02:51:59;7.03;;;4.35;;
76348;SDS011;65172;46.764;15.406;2023-04-24T02:54:24;7.70;;;4.65;;
76348;SDS011;65172;46.764;15.406;2023-04-24T02:56:51;8.52;;;4.65;;
76348;SDS011;65172;46.764;15.406;2023-04-24T02:59:16;9.73;;;5.18;;
76348;SDS011;65172;46.764;15.406;2023-04-24T03:01:42;7.43;;;4.65;;
76348;SDS011;65172;46.764;15.406;2023-04-24T03:04:07;6.50;;;4.47;;
76348;SDS011;65172;46.764;15.406;2023-04-24T03:06:33;7.70;;;4.70;;
76348;SDS011;65172;46.764;15.406;2023-04-24T03:09:00;7.05;;;4.57;;
76348;SDS011;65172;46.764;15.406;2023-04-24T03:11:26;8.77;;;4.93;;
76348;SDS011;65172;46.764;15.406;2023-04-24T03:13:51;6.93;;;4.93;;
76348;SDS011;65172;46.764;15.406;2023-04-24T03:16:17;7.88;;;4.55;;
76348;SDS011;65172;46.764;15.406;2023-04-24T03:18:42;7.03;;;4.53;;
76348;SDS011;65172;46.764;15.406;2023-04-24T03:21:08;12.10;;;5.07;;
76348;SDS011;65172;46.764;15.406;2023-04-24T03:23:33;7.15;;;4.72;;
76348;SDS011;65172;46.764;15.406;2023-04-24T03:25:59;6.75;;;4.40;;
76348;SDS011;65172;46.764;15.406;2023-04-24T03:28:24;6.80;;;4.90;;
76348;SDS011;65172;46.764;15.406;2023-04-24T03:30:50;10.00;;;4.72;;
76348;SDS011;65172;46.764;15.406;2023-04-24T03:33:15;8.40;;;4.47;;
76348;SDS011;65172;46.764;15.406;2023-04-24T03:35:41;6.63;;;4.50;;
76348;SDS011;65172;46.764;15.406;2023-04-24T03:38:06;8.60;;;5.40;;
76348;SDS011;65172;46.764;15.406;2023-04-24T03:40:32;7.18;;;4.50;;
76348;SDS011;65172;46.764;15.406;2023-04-24T03:42:58;6.45;;;4.88;;
76348;SDS011;65172;46.764;15.406;2023-04-24T03:45:24;6.82;;;4.80;;
76348;SDS011;65172;46.764;15.406;2023-04-24T03:47:49;9.55;;;5.45;;
76348;SDS011;65172;46.764;15.406;2023-04-24T03:50:15;6.50;;;5.13;;
76348;SDS011;65172;46.764;15.406;2023-04-24T03:52:40;8.63;;;5.78;;
76348;SDS011;65172;46.764;15.406;2023-04-24T03:55:06;7.35;;;5.53;;
76348;SDS011;65172;46.764;15.406;2023-04-24T03:57:32;6.70;;;5.15;;
76348;SDS011;65172;46.764;15.406;2023-04-24T03:59:57;9.50;;;5.03;;
76348;SDS011;65172;46.764;15.406;2023-04-24T04:02:22;8.23;;;4.75;;
76348;SDS011;65172;46.764;15.406;2023-04-24T04:04:48;7.05;;;5.20;;
76348;SDS011;65172;46.764;15.406;2023-04-24T04:07:13;9.20;;;5.35;;
76348;SDS011;65172;46.764;15.406;2023-04-24T04:09:39;10.05;;;5.50;;
76348;SDS011;65172;46.764;15.406;2023-04-24T04:12:05;12.77;;;4.85;;
76348;SDS011;65172;46.764;15.406;2023-04-24T04:14:30;13.23;;;5.43;;
76348;SDS011;65172;46.764;15.406;2023-04-24T04:16:56;13.75;;;5.28;;
76348;SDS011;65172;46.764;15.406;2023-04-24T04:19:21;6.90;;;5.20;;
76348;SDS011;65172;46.764;15.406;2023-04-24T04:21:47;9.73;;;5.22;;
76348;SDS011;65172;46.764;15.406;2023-04-24T04:24:17;20.25;;;10.50;;
76348;SDS011;65172;46.764;15.406;2023-04-24T04:26:42;14.50;;;7.10;;
76348;SDS011;65172;46.764;15.406;2023-04-24T04:29:11;10.40;;;5.30;;
76348;SDS011;65172;46.764;15.406;2023-04-24T04:31:37;12.02;;;9.00;;
76348;SDS011;65172;46.764;15.406;2023-04-24T04:34:05;10.85;;;6.97;;
76348;SDS011;65172;46.764;15.406;2023-04-24T04:36:30;9.90;;;7.22;;
76348;SDS011;65172;46.764;15.406;2023-04-24T04:38:56;68.82;;;39.22;;
76348;SDS011;65172;46.764;15.406;2023-04-24T04:41:21;15.23;;;12.73;;
76348;SDS011;65172;46.764;15.406;2023-04-24T04:43:47;14.63;;;10.23;;
76348;SDS011;65172;46.764;15.406;2023-04-24T04:46:13;18.05;;;9.85;;
76348;SDS011;65172;46.764;15.406;2023-04-24T04:48:38;13.73;;;7.57;;
76348;SDS011;65172;46.764;15.406;2023-04-24T04:51:04;9.43;;;7.38;;
76348;SDS011;65172;46.764;15.406;2023-04-24T04:53:30;10.20;;;7.25;;
76348;SDS011;65172;46.764;15.406;2023-04-24T04:55:56;12.25;;;8.40;;
76348;SDS011;65172;46.764;15.406;2023-04-24T04:58:21;10.32;;;7.78;;
76348;SDS011;65172;46.764;15.406;2023-04-24T05:00:47;12.77;;;7.38;;
76348;SDS011;65172;46.764;15.406;2023-04-24T05:03:12;11.13;;;7.28;;
76348;SDS011;65172;46.764;15.406;2023-04-24T05:05:38;11.30;;;7.32;;
76348;SDS011;65172;46.764;15.406;2023-04-24T05:08:06;12.30;;;7.97;;
76348;SDS011;65172;46.764;15.406;2023-04-24T05:10:34;11.73;;;8.55;;
76348;SDS011;65172;46.764;15.406;2023-04-24T05:13:02;11.70;;;7.70;;
76348;SDS011;65172;46.764;15.406;2023-04-24T05:15:28;11.88;;;7.65;;
76348;SDS011;65172;46.764;15.406;2023-04-24T05:17:53;13.25;;;8.27;;
76348;SDS011;65172;46.764;15.406;2023-04-24T05:20:19;11.73;;;8.70;;
76348;SDS011;65172;46.764;15.406;2023-04-24T05:22:44;12.65;;;8.45;;
76348;SDS011;65172;46.764;15.406;2023-04-24T05:25:10;8.55;;;6.40;;
76348;SDS011;65172;46.764;15.406;2023-04-24T05:27:37;11.93;;;8.45;;
76348;SDS011;65172;46.764;15.406;2023-04-24T05:30:03;14.25;;;9.55;;
76348;SDS011;65172;46.764;15.406;2023-04-24T05:32:29;13.15;;;8.95;;
76348;SDS011;65172;46.764;15.406;2023-04-24T05:34:55;14.10;;;9.35;;
76348;SDS011;65172;46.764;15.406;2023-04-24T05:37:20;12.00;;;8.80;;
76348;SDS011;65172;46.764;15.406;2023-04-24T05:39:46;10.95;;;7.60;;
76348;SDS011;65172;46.764;15.406;2023-04-24T05:42:11;11.82;;;8.77;;
76348;SDS011;65172;46.764;15.406;2023-04-24T05:44:37;14.63;;;10.25;;
76348;SDS011;65172;46.764;15.406;2023-04-24T05:47:02;16.80;;;10.32;;
76348;SDS011;65172;46.764;15.406;2023-04-24T05:49:28;17.83;;;9.82;;
76348;SDS011;65172;46.764;15.406;2023-04-24T05:51:53;20.92;;;12.77;;
76348;SDS011;65172;46.764;15.406;2023-04-24T05:54:19;16.88;;;11.73;;
76348;SDS011;65172;46.764;15.406;2023-04-24T05:56:44;17.63;;;12.00;;
76348;SDS011;65172;46.764;15.406;2023-04-24T05:59:10;17.08;;;10.23;;
76348;SDS011;65172;46.764;15.406;2023-04-24T06:01:35;19.40;;;12.65;;
76348;SDS011;65172;46.764;15.406;2023-04-24T06:04:02;15.48;;;9.48;;
76348;SDS011;65172;46.764;15.406;2023-04-24T06:06:28;17.88;;;10.85;;
76348;SDS011;65172;46.764;15.406;2023-04-24T06:08:54;17.02;;;12.32;;
76348;SDS011;65172;46.764;15.406;2023-04-24T06:11:20;19.02;;;13.07;;
76348;SDS011;65172;46.764;15.406;2023-04-24T06:13:46;17.98;;;12.43;;
76348;SDS011;65172;46.764;15.406;2023-04-24T06:16:11;21.40;;;13.38;;
76348;SDS011;65172;46.764;15.406;2023-04-24T06:18:37;18.23;;;12.95;;
76348;SDS011;65172;46.764;15.406;2023-04-24T06:21:02;21.00;;;13.90;;
76348;SDS011;65172;46.764;15.406;2023-04-24T06:23:28;22.77;;;13.82;;
76348;SDS011;65172;46.764;15.406;2023-04-24T06:25:54;18.65;;;13.65;;
76348;SDS011;65172;46.764;15.406;2023-04-24T06:28:20;20.52;;;13.18;;
76348;SDS011;65172;46.764;15.406;2023-04-24T06:30:45;16.55;;;11.68;;
76348;SDS011;65172;46.764;15.406;2023-04-24T06:33:10;15.50;;;10.00;;
76348;SDS011;65172;46.764;15.406;2023-04-24T06:35:36;12.70;;;9.25;;
76348;SDS011;65172;46.764;15.406;2023-04-24T06:38:03;12.80;;;8.82;;
76348;SDS011;65172;46.764;15.406;2023-04-24T06:40:29;13.95;;;9.73;;
76348;SDS011;65172;46.764;15.406;2023-04-24T06:42:55;13.30;;;9.75;;
76348;SDS011;65172;46.764;15.406;2023-04-24T06:45:20;13.05;;;8.63;;
76348;SDS011;65172;46.764;15.406;2023-04-24T06:47:46;13.70;;;9.77;;
76348;SDS011;65172;46.764;15.406;2023-04-24T06:50:11;15.32;;;9.20;;
76348;SDS011;65172;46.764;15.406;2023-04-24T06:52:37;13.90;;;9.07;;
76348;SDS011;65172;46.764;15.406;2023-04-24T06:55:03;13.52;;;9.27;;
76348;SDS011;65172;46.764;15.406;2023-04-24T06:57:28;11.23;;;8.10;;
76348;SDS011;65172;46.764;15.406;2023-04-24T06:59:54;11.57;;;8.52;;
76348;SDS011;65172;46.764;15.406;2023-04-24T07:02:20;14.63;;;9.98;;
76348;SDS011;65172;46.764;15.406;2023-04-24T07:04:45;13.10;;;7.75;;
76348;SDS011;65172;46.764;15.406;2023-04-24T07:07:12;10.65;;;7.18;;
76348;SDS011;65172;46.764;15.406;2023-04-24T07:09:39;9.73;;;7.20;;
76348;SDS011;65172;46.764;15.406;2023-04-24T07:12:07;12.43;;;7.07;;
76348;SDS011;65172;46.764;15.406;2023-04-24T07:14:33;12.27;;;7.47;;
76348;SDS011;65172;46.764;15.406;2023-04-24T07:16:59;12.50;;;7.32;;
76348;SDS011;65172;46.764;15.406;2023-04-24T07:19:24;12.32;;;7.28;;
76348;SDS011;65172;46.764;15.406;2023-04-24T07:21:50;13.25;;;7.22;;
76348;SDS011;65172;46.764;15.406;2023-04-24T07:24:15;8.75;;;6.55;;
76348;SDS011;65172;46.764;15.406;2023-04-24T07:26:41;9.43;;;7.25;;
76348;SDS011;65172;46.764;15.406;2023-04-24T07:29:07;8.73;;;6.50;;
76348;SDS011;65172;46.764;15.406;2023-04-24T07:31:32;13.50;;;6.75;;
76348;SDS011;65172;46.764;15.406;2023-04-24T07:33:58;10.93;;;8.13;;
76348;SDS011;65172;46.764;15.406;2023-04-24T07:36:24;11.23;;;6.68;;
76348;SDS011;65172;46.764;15.406;2023-04-24T07:38:51;8.88;;;6.80;;
76348;SDS011;65172;46.764;15.406;2023-04-24T07:41:17;14.00;;;7.68;;
76348;SDS011;65172;46.764;15.406;2023-04-24T07:43:44;11.05;;;7.30;;
76348;SDS011;65172;46.764;15.406;2023-04-24T07:46:09;9.52;;;7.25;;
76348;SDS011;65172;46.764;15.406;2023-04-24T07:48:35;10.05;;;7.32;;
76348;SDS011;65172;46.764;15.406;2023-04-24T07:51:01;11.75;;;7.80;;
76348;SDS011;65172;46.764;15.406;2023-04-24T07:53:27;10.18;;;7.30;;
76348;SDS011;65172;46.764;15.406;2023-04-24T07:55:53;11.68;;;7.35;;
76348;SDS011;65172;46.764;15.406;2023-04-24T07:58:20;15.50;;;8.13;;
76348;SDS011;65172;46.764;15.406;2023-04-24T08:00:46;10.90;;;7.05;;
76348;SDS011;65172;46.764;15.406;2023-04-24T08:03:12;13.00;;;8.23;;
76348;SDS011;65172;46.764;15.406;2023-04-24T08:05:37;13.20;;;8.38;;
76348;SDS011;65172;46.764;15.406;2023-04-24T08:08:03;11.52;;;8.18;;
76348;SDS011;65172;46.764;15.406;2023-04-24T08:10:29;13.38;;;8.43;;
76348;SDS011;65172;46.764;15.406;2023-04-24T08:12:54;14.43;;;8.73;;
76348;SDS011;65172;46.764;15.406;2023-04-24T08:15:20;12.23;;;7.30;;
76348;SDS011;65172;46.764;15.406;2023-04-24T08:17:46;13.48;;;8.20;;
76348;SDS011;65172;46.764;15.406;2023-04-24T08:20:12;13.23;;;7.30;;
76348;SDS011;65172;46.764;15.406;2023-04-24T08:22:40;14.95;;;7.65;;
76348;SDS011;65172;46.764;15.406;2023-04-24T08:25:06;14.27;;;8.73;;
76348;SDS011;65172;46.764;15.406;2023-04-24T08:27:32;12.13;;;6.32;;
76348;SDS011;65172;46.764;15.406;2023-04-24T08:29:58;21.88;;;10.48;;
76348;SDS011;65172;46.764;15.406;2023-04-24T08:32:26;9.25;;;7.50;;
76348;SDS011;65172;46.764;15.406;2023-04-24T08:34:55;12.45;;;6.97;;
76348;SDS011;65172;46.764;15.406;2023-04-24T08:37:21;10.85;;;6.13;;
76348;SDS011;65172;46.764;15.406;2023-04-24T08:39:47;11.73;;;7.70;;
76348;SDS011;65172;46.764;15.406;2023-04-24T08:42:13;10.57;;;7.00;;
76348;SDS011;65172;46.764;15.406;2023-04-24T08:44:39;11.73;;;5.93;;
76348;SDS011;65172;46.764;15.406;2023-04-24T08:47:05;15.57;;;7.80;;
76348;SDS011;65172;46.764;15.406;2023-04-24T08:49:31;12.20;;;6.03;;
76348;SDS011;65172;46.764;15.406;2023-04-24T08:51:57;10.80;;;6.90;;
76348;SDS011;65172;46.764;15.406;2023-04-24T08:54:24;10.57;;;7.57;;
76348;SDS011;65172;46.764;15.406;2023-04-24T08:56:50;9.20;;;6.40;;
76348;SDS011;65172;46.764;15.406;2023-04-24T08:59:16;11.82;;;7.05;;
76348;SDS011;65172;46.764;15.406;2023-04-24T09:01:42;9.02;;;5.93;;
76348;SDS011;65172;46.764;15.406;2023-04-24T09:04:10;9.85;;;6.53;;
76348;SDS011;65172;46.764;15.406;2023-04-24T09:06:37;13.45;;;8.90;;
76348;SDS011;65172;46.764;15.406;2023-04-24T09:09:02;12.90;;;6.85;;
76348;SDS011;65172;46.764;15.406;2023-04-24T09:11:31;11.95;;;7.45;;
76348;SDS011;65172;46.764;15.406;2023-04-24T09:13:58;13.88;;;8.48;;
76348;SDS011;65172;46.764;15.406;2023-04-24T09:16:24;13.82;;;8.38;;
76348;SDS011;65172;46.764;15.406;2023-04-24T09:18:51;15.95;;;9.82;;
76348;SDS011;65172;46.764;15.406;2023-04-24T09:21:17;16.73;;;11.18;;
76348;SDS011;65172;46.764;15.406;2023-04-24T09:23:42;12.43;;;8.77;;
76348;SDS011;65172;46.764;15.406;2023-04-24T09:26:08;15.43;;;10.20;;
76348;SDS011;65172;46.764;15.406;2023-04-24T09:28:37;15.38;;;10.85;;
76348;SDS011;65172;46.764;15.406;2023-04-24T09:31:08;12.40;;;9.70;;
76348;SDS011;65172;46.764;15.406;2023-04-24T09:33:40;14.82;;;9.57;;
76348;SDS011;65172;46.764;15.406;2023-04-24T09:36:05;16.00;;;10.88;;
76348;SDS011;65172;46.764;15.406;2023-04-24T09:38:32;15.73;;;10.10;;
76348;SDS011;65172;46.764;15.406;2023-04-24T09:41:05;26.52;;;14.95;;
76348;SDS011;65172;46.764;15.406;2023-04-24T09:43:32;17.85;;;12.52;;
76348;SDS011;65172;46.764;15.406;2023-04-24T09:45:58;25.75;;;15.43;;
76348;SDS011;65172;46.764;15.406;2023-04-24T09:48:36;21.48;;;15.02;;
76348;SDS011;65172;46.764;15.406;2023-04-24T09:51:02;18.02;;;13.18;;
76348;SDS011;65172;46.764;15.406;2023-04-24T09:53:29;19.45;;;13.80;;
76348;SDS011;65172;46.764;15.406;2023-04-24T09:55:56;19.13;;;13.38;;
76348;SDS011;65172;46.764;15.406;2023-04-24T09:58:25;22.42;;;14.73;;
76348;SDS011;65172;46.764;15.406;2023-04-24T10:00:54;19.40;;;13.40;;
76348;SDS011;65172;46.764;15.406;2023-04-24T10:03:20;16.20;;;12.48;;
76348;SDS011;65172;46.764;15.406;2023-04-24T10:05:46;22.10;;;14.20;;
76348;SDS011;65172;46.764;15.406;2023-04-24T10:08:12;18.27;;;12.25;;
76348;SDS011;65172;46.764;15.406;2023-04-24T10:10:42;17.77;;;12.38;;
76348;SDS011;65172;46.764;15.406;2023-04-24T10:13:09;18.75;;;13.55;;
76348;SDS011;65172;46.764;15.406;2023-04-24T10:15:35;15.63;;;12.15;;
76348;SDS011;65172;46.764;15.406;2023-04-24T10:18:02;18.80;;;11.88;;
76348;SDS011;65172;46.764;15.406;2023-04-24T10:20:30;14.73;;;11.48;;
76348;SDS011;65172;46.764;15.406;2023-04-24T10:22:56;17.27;;;12.38;;
76348;SDS011;65172;46.764;15.406;2023-04-24T10:25:33;23.10;;;14.95;;
76348;SDS011;65172;46.764;15.406;2023-04-24T10:28:02;19.98;;;14.55;;
76348;SDS011;65172;46.764;15.406;2023-04-24T10:30:29;15.20;;;11.23;;
76348;SDS011;65172;46.764;15.406;2023-04-24T10:32:57;18.20;;;12.35;;
76348;SDS011;65172;46.764;15.406;2023-04-24T10:35:24;19.08;;;12.63;;
76348;SDS011;65172;46.764;15.406;2023-04-24T10:40:39;18.13;;;13.18;;
76348;SDS011;65172;46.764;15.406;2023-04-24T10:43:06;46.88;;;21.77;;
76348;SDS011;65172;46.764;15.406;2023-04-24T10:45:36;42.42;;;20.77;;
76348;SDS011;65172;46.764;15.406;2023-04-24T10:48:09;20.85;;;14.57;;
76348;SDS011;65172;46.764;15.406;2023-04-24T10:50:45;21.08;;;14.55;;
76348;SDS011;65172;46.764;15.406;2023-04-24T10:53:19;27.38;;;16.17;;
76348;SDS011;65172;46.764;15.406;2023-04-24T10:58:21;22.75;;;13.57;;
76348;SDS011;65172;46.764;15.406;2023-04-24T11:00:55;19.10;;;12.75;;
76348;SDS011;65172;46.764;15.406;2023-04-24T11:05:58;19.30;;;13.13;;
76348;SDS011;65172;46.764;15.406;2023-04-24T11:08:28;17.38;;;13.07;;
76348;SDS011;65172;46.764;15.406;2023-04-24T11:10:56;20.20;;;13.43;;
76348;SDS011;65172;46.764;15.406;2023-04-24T11:13:27;18.95;;;10.68;;
76348;SDS011;65172;46.764;15.406;2023-04-24T11:16:20;16.17;;;12.32;;
76348;SDS011;65172;46.764;15.406;2023-04-24T11:18:49;14.23;;;10.32;;
76348;SDS011;65172;46.764;15.406;2023-04-24T11:21:18;14.88;;;11.60;;
76348;SDS011;65172;46.764;15.406;2023-04-24T11:23:44;16.58;;;11.57;;
76348;SDS011;65172;46.764;15.406;2023-04-24T11:26:21;19.33;;;11.65;;
76348;SDS011;65172;46.764;15.406;2023-04-24T11:28:49;20.98;;;12.07;;
76348;SDS011;65172;46.764;15.406;2023-04-24T11:31:37;21.40;;;12.32;;
76348;SDS011;65172;46.764;15.406;2023-04-24T11:34:07;22.38;;;13.68;;
76348;SDS011;65172;46.764;15.406;2023-04-24T11:36:38;24.45;;;18.08;;
76348;SDS011;65172;46.764;15.406;2023-04-24T11:39:04;16.30;;;12.25;;
76348;SDS011;65172;46.764;15.406;2023-04-24T11:41:29;24.60;;;12.43;;
76348;SDS011;65172;46.764;15.406;2023-04-24T11:43:55;16.38;;;11.43;;
76348;SDS011;65172;46.764;15.406;2023-04-24T11:46:21;17.50;;;11.02;;
76348;SDS011;65172;46.764;15.406;2023-04-24T11:48:47;13.73;;;9.85;;
76348;SDS011;65172;46.764;15.406;2023-04-24T11:51:13;20.88;;;11.85;;
76348;SDS011;65172;46.764;15.406;2023-04-24T11:53:39;21.48;;;12.95;;
76348;SDS011;65172;46.764;15.406;2023-04-24T11:56:05;18.98;;;13.40;;
76348;SDS011;65172;46.764;15.406;2023-04-24T11:58:37;19.55;;;13.63;;
76348;SDS011;65172;46.764;15.406;2023-04-24T12:01:04;14.27;;;10.13;;
76348;SDS011;65172;46.764;15.406;2023-04-24T12:03:30;17.88;;;11.25;;
76348;SDS011;65172;46.764;15.406;2023-04-24T12:06:08;13.38;;;10.30;;
76348;SDS011;65172;46.764;15.406;2023-04-24T12:08:35;14.40;;;10.50;;
76348;SDS011;65172;46.764;15.406;2023-04-24T12:11:02;16.75;;;10.35;;
76348;SDS011;65172;46.764;15.406;2023-04-24T12:13:28;14.10;;;9.43;;
76348;SDS011;65172;46.764;15.406;2023-04-24T12:15:54;13.77;;;9.35;;
76348;SDS011;65172;46.764;15.406;2023-04-24T12:18:23;12.00;;;9.35;;
76348;SDS011;65172;46.764;15.406;2023-04-24T12:20:49;15.70;;;10.88;;
76348;SDS011;65172;46.764;15.406;2023-04-24T12:23:15;13.23;;;9.85;;
76348;SDS011;65172;46.764;15.406;2023-04-24T12:25:41;14.57;;;11.48;;
76348;SDS011;65172;46.764;15.406;2023-04-24T12:31:09;11.80;;;8.93;;
76348;SDS011;65172;46.764;15.406;2023-04-24T12:33:27;14.18;;;9.82;;
76348;SDS011;65172;46.764;15.406;2023-04-24T12:35:57;10.73;;;7.75;;
76348;SDS011;65172;46.764;15.406;2023-04-24T12:38:24;10.50;;;8.48;;
76348;SDS011;65172;46.764;15.406;2023-04-24T12:41:10;10.10;;;8.32;;
76348;SDS011;65172;46.764;15.406;2023-04-24T12:43:37;11.80;;;8.73;;
76348;SDS011;65172;46.764;15.406;2023-04-24T12:46:04;12.30;;;9.23;;
76348;SDS011;65172;46.764;15.406;2023-04-24T12:48:30;12.98;;;9.05;;
76348;SDS011;65172;46.764;15.406;2023-04-24T12:50:59;11.38;;;8.05;;
76348;SDS011;65172;46.764;15.406;2023-04-24T12:53:28;10.98;;;7.50;;
76348;SDS011;65172;46.764;15.406;2023-04-24T12:55:56;9.63;;;7.53;;
76348;SDS011;65172;46.764;15.406;2023-04-24T12:58:22;13.02;;;9.60;;
76348;SDS011;65172;46.764;15.406;2023-04-24T13:00:47;14.35;;;8.10;;
76348;SDS011;65172;46.764;15.406;2023-04-24T13:03:13;10.52;;;7.28;;
76348;SDS011;65172;46.764;15.406;2023-04-24T13:05:39;12.30;;;8.35;;
76348;SDS011;65172;46.764;15.406;2023-04-24T13:08:05;11.50;;;7.65;;
76348;SDS011;65172;46.764;15.406;2023-04-24T13:10:31;9.57;;;7.47;;
76348;SDS011;65172;46.764;15.406;2023-04-24T13:12:56;8.98;;;6.78;;
76348;SDS011;65172;46.764;15.406;2023-04-24T13:15:22;12.68;;;7.28;;
76348;SDS011;65172;46.764;15.406;2023-04-24T13:17:47;10.10;;;6.93;;
76348;SDS011;65172;46.764;15.406;2023-04-24T13:20:13;10.52;;;6.78;;
76348;SDS011;65172;46.764;15.406;2023-04-24T13:22:38;9.20;;;8.02;;
76348;SDS011;65172;46.764;15.406;2023-04-24T13:25:04;9.70;;;7.22;;
76348;SDS011;65172;46.764;15.406;2023-04-24T13:27:31;16.48;;;8.52;;
76348;SDS011;65172;46.764;15.406;2023-04-24T13:29:56;10.18;;;7.47;;
76348;SDS011;65172;46.764;15.406;2023-04-24T13:32:22;9.10;;;7.30;;
76348;SDS011;65172;46.764;15.406;2023-04-24T13:34:47;10.13;;;7.63;;
76348;SDS011;65172;46.764;15.406;2023-04-24T13:37:13;9.85;;;7.82;;
76348;SDS011;65172;46.764;15.406;2023-04-24T13:39:38;11.90;;;7.57;;
76348;SDS011;65172;46.764;15.406;2023-04-24T13:42:07;10.60;;;7.50;;
76348;SDS011;65172;46.764;15.406;2023-04-24T13:44:32;10.02;;;7.68;;
76348;SDS011;65172;46.764;15.406;2023-04-24T13:46:58;9.75;;;7.43;;
76348;SDS011;65172;46.764;15.406;2023-04-24T13:49:24;8.52;;;6.30;;
76348;SDS011;65172;46.764;15.406;2023-04-24T13:51:50;8.68;;;7.57;;
76348;SDS011;65172;46.764;15.406;2023-04-24T13:54:16;10.48;;;7.35;;
76348;SDS011;65172;46.764;15.406;2023-04-24T13:56:42;9.23;;;6.80;;
76348;SDS011;65172;46.764;15.406;2023-04-24T13:59:07;10.68;;;7.30;;
76348;SDS011;65172;46.764;15.406;2023-04-24T14:01:33;11.40;;;7.65;;
76348;SDS011;65172;46.764;15.406;2023-04-24T14:03:59;10.73;;;6.72;;
76348;SDS011;65172;46.764;15.406;2023-04-24T14:06:25;9.63;;;6.97;;
76348;SDS011;65172;46.764;15.406;2023-04-24T14:08:51;12.35;;;7.28;;
76348;SDS011;65172;46.764;15.406;2023-04-24T14:11:17;9.27;;;6.78;;
76348;SDS011;65172;46.764;15.406;2023-04-24T14:13:43;11.20;;;7.25;;
76348;SDS011;65172;46.764;15.406;2023-04-24T14:16:10;9.90;;;6.88;;
76348;SDS011;65172;46.764;15.406;2023-04-24T14:18:36;10.35;;;6.90;;
76348;SDS011;65172;46.764;15.406;2023-04-24T14:21:02;9.65;;;6.70;;
76348;SDS011;65172;46.764;15.406;2023-04-24T14:23:30;8.02;;;6.88;;
76348;SDS011;65172;46.764;15.406;2023-04-24T14:25:57;8.10;;;6.88;;
76348;SDS011;65172;46.764;15.406;2023-04-24T14:28:23;9.02;;;6.53;;
76348;SDS011;65172;46.764;15.406;2023-04-24T14:30:49;12.05;;;6.70;;